QLK1135 YMAY-YSSY
Flight info
| Callsign | QLK1135 |
|---|---|
| Flight time | 1h 0m |
| Altitude | 19000 |
| Route | AY W817 AKMIR W113 ODALE |
| Aircraft | DH8D/M-SDE2E3FGRY/H |
Departure
| Time | 2026-04-24 08:22 |
|---|---|
| Airport | Albury Airport (YMAY) |
Arrival
| Time | 2026-04-24 09:23 |
|---|---|
| Airport | Sydney Kingsford Smith International Airport (YSSY) |
| Time | Latitude | Longitude | Altitude | Speed | Heading |
|---|---|---|---|---|---|
| 2026-04-24 08:17 | -36.06850 | 146.95586 | 548 ft | 0 kts | 262° |
| 2026-04-24 08:17 | -36.06851 | 146.95575 | 548 ft | 1 kts | 261° |
| 2026-04-24 08:17 | -36.06853 | 146.95557 | 548 ft | 6 kts | 259° |
| 2026-04-24 08:18 | -36.06858 | 146.95523 | 548 ft | 5 kts | 257° |
| 2026-04-24 08:18 | -36.06847 | 146.95467 | 549 ft | 6 kts | 323° |
| 2026-04-24 08:18 | -36.06827 | 146.95459 | 549 ft | 0 kts | 350° |
| 2026-04-24 08:19 | -36.06821 | 146.95459 | 549 ft | 3 kts | 351° |
| 2026-04-24 08:19 | -36.06771 | 146.95451 | 549 ft | 10 kts | 0° |
| 2026-04-24 08:19 | -36.06726 | 146.95535 | 548 ft | 15 kts | 82° |
| 2026-04-24 08:19 | -36.06713 | 146.95631 | 548 ft | 15 kts | 83° |
| 2026-04-24 08:20 | -36.06695 | 146.95781 | 546 ft | 20 kts | 82° |
| 2026-04-24 08:20 | -36.06669 | 146.95989 | 545 ft | 21 kts | 79° |
| 2026-04-24 08:20 | -36.06653 | 146.96117 | 545 ft | 22 kts | 81° |
| 2026-04-24 08:20 | -36.06619 | 146.96382 | 542 ft | 22 kts | 81° |
| 2026-04-24 08:21 | -36.06590 | 146.96614 | 542 ft | 33 kts | 81° |
| 2026-04-24 08:21 | -36.06570 | 146.96773 | 542 ft | 19 kts | 82° |
| 2026-04-24 08:21 | -36.06544 | 146.96939 | 542 ft | 4 kts | 132° |
| 2026-04-24 08:21 | -36.06561 | 146.96928 | 543 ft | 9 kts | 262° |
| 2026-04-24 08:22 | -36.06570 | 146.96755 | 542 ft | 52 kts | 259° |
| 2026-04-24 08:22 | -36.06677 | 146.95934 | 545 ft | 133 kts | 261° |
| 2026-04-24 08:22 | -36.06779 | 146.95093 | 642 ft | 154 kts | 263° |
| 2026-04-24 08:22 | -36.06929 | 146.93771 | 1176 ft | 161 kts | 262° |
| 2026-04-24 08:23 | -36.07210 | 146.91890 | 1906 ft | 171 kts | 260° |
| 2026-04-24 08:23 | -36.07446 | 146.90498 | 2622 ft | 163 kts | 258° |
| 2026-04-24 08:23 | -36.07712 | 146.89121 | 3066 ft | 172 kts | 257° |
| 2026-04-24 08:23 | -36.08031 | 146.87688 | 3633 ft | 173 kts | 255° |
| 2026-04-24 08:24 | -36.08349 | 146.86261 | 4186 ft | 175 kts | 259° |
| 2026-04-24 08:24 | -36.08190 | 146.84822 | 4676 ft | 171 kts | 312° |
| 2026-04-24 08:24 | -36.07190 | 146.84123 | 5137 ft | 168 kts | 347° |
| 2026-04-24 08:24 | -36.06071 | 146.83737 | 5758 ft | 167 kts | 346° |
| 2026-04-24 08:25 | -36.04941 | 146.83350 | 6311 ft | 169 kts | 347° |
| 2026-04-24 08:25 | -36.03793 | 146.82970 | 6876 ft | 170 kts | 347° |
| 2026-04-24 08:25 | -36.02655 | 146.82599 | 7426 ft | 171 kts | 347° |
| 2026-04-24 08:25 | -36.01516 | 146.82230 | 7969 ft | 172 kts | 347° |
| 2026-04-24 08:26 | -36.00334 | 146.82030 | 8486 ft | 172 kts | 13° |
| 2026-04-24 08:26 | -35.99646 | 146.82487 | 8732 ft | 175 kts | 45° |
| 2026-04-24 08:26 | -35.98901 | 146.83673 | 9216 ft | 177 kts | 51° |
| 2026-04-24 08:26 | -35.97940 | 146.85318 | 9871 ft | 179 kts | 52° |
| 2026-04-24 08:27 | -35.97452 | 146.86165 | 10205 ft | 180 kts | 52° |
| 2026-04-24 08:27 | -35.96495 | 146.87831 | 10852 ft | 182 kts | 53° |
| 2026-04-24 08:27 | -35.95996 | 146.88699 | 11156 ft | 184 kts | 53° |
| 2026-04-24 08:27 | -35.95004 | 146.90427 | 11771 ft | 186 kts | 53° |
| 2026-04-24 08:28 | -35.94505 | 146.91296 | 12074 ft | 187 kts | 53° |
| 2026-04-24 08:28 | -35.93752 | 146.92609 | 12516 ft | 188 kts | 53° |
| 2026-04-24 08:28 | -35.92998 | 146.93924 | 12933 ft | 190 kts | 53° |
| 2026-04-24 08:28 | -35.91972 | 146.95714 | 13461 ft | 192 kts | 53° |
| 2026-04-24 08:29 | -35.91193 | 146.97070 | 13855 ft | 194 kts | 53° |
| 2026-04-24 08:29 | -35.90414 | 146.98428 | 14235 ft | 196 kts | 54° |
| 2026-04-24 08:29 | -35.89628 | 146.99800 | 14615 ft | 197 kts | 54° |
| 2026-04-24 08:29 | -35.88841 | 147.01170 | 14985 ft | 197 kts | 54° |
| 2026-04-24 08:30 | -35.88047 | 147.02553 | 15355 ft | 198 kts | 54° |
| 2026-04-24 08:30 | -35.87249 | 147.03944 | 15709 ft | 199 kts | 55° |
| 2026-04-24 08:30 | -35.86452 | 147.05331 | 16048 ft | 201 kts | 55° |
| 2026-04-24 08:30 | -35.85643 | 147.06740 | 16395 ft | 201 kts | 55° |
| 2026-04-24 08:31 | -35.84828 | 147.08156 | 16743 ft | 201 kts | 56° |
| 2026-04-24 08:31 | -35.84161 | 147.09317 | 16999 ft | 203 kts | 56° |
| 2026-04-24 08:31 | -35.83626 | 147.10246 | 17200 ft | 203 kts | 56° |
| 2026-04-24 08:31 | -35.82523 | 147.12164 | 17598 ft | 205 kts | 56° |
| 2026-04-24 08:32 | -35.81695 | 147.13603 | 17880 ft | 206 kts | 56° |
| 2026-04-24 08:32 | -35.80869 | 147.15036 | 18163 ft | 207 kts | 56° |
| 2026-04-24 08:32 | -35.80037 | 147.16483 | 18449 ft | 208 kts | 56° |
| 2026-04-24 08:32 | -35.79192 | 147.17947 | 18724 ft | 209 kts | 56° |
| 2026-04-24 08:33 | -35.78358 | 147.19394 | 18984 ft | 210 kts | 56° |
| 2026-04-24 08:33 | -35.77508 | 147.20869 | 19239 ft | 211 kts | 56° |
| 2026-04-24 08:33 | -35.76645 | 147.22365 | 19363 ft | 220 kts | 56° |
| 2026-04-24 08:33 | -35.75777 | 147.23978 | 19414 ft | 232 kts | 63° |
| 2026-04-24 08:34 | -35.75304 | 147.25205 | 19434 ft | 240 kts | 68° |
| 2026-04-24 08:34 | -35.74383 | 147.27812 | 19442 ft | 260 kts | 68° |
| 2026-04-24 08:34 | -35.73636 | 147.29930 | 19448 ft | 274 kts | 68° |
| 2026-04-24 08:34 | -35.72862 | 147.32112 | 19446 ft | 288 kts | 67° |
| 2026-04-24 08:35 | -35.72039 | 147.34427 | 19443 ft | 301 kts | 67° |
| 2026-04-24 08:35 | -35.71175 | 147.36845 | 19438 ft | 311 kts | 67° |
| 2026-04-24 08:35 | -35.70589 | 147.38486 | 19432 ft | 318 kts | 67° |
| 2026-04-24 08:35 | -35.69391 | 147.41832 | 19426 ft | 327 kts | 67° |
| 2026-04-24 08:36 | -35.68888 | 147.43233 | 19428 ft | 330 kts | 67° |
| 2026-04-24 08:36 | -35.67881 | 147.46034 | 19432 ft | 336 kts | 67° |
| 2026-04-24 08:36 | -35.66935 | 147.48669 | 19427 ft | 341 kts | 67° |
| 2026-04-24 08:36 | -35.65969 | 147.51352 | 19433 ft | 343 kts | 67° |
| 2026-04-24 08:37 | -35.65003 | 147.54028 | 19423 ft | 338 kts | 67° |
| 2026-04-24 08:37 | -35.64052 | 147.56657 | 19424 ft | 335 kts | 67° |
| 2026-04-24 08:37 | -35.63119 | 147.59244 | 19423 ft | 331 kts | 67° |
| 2026-04-24 08:37 | -35.62183 | 147.61835 | 19427 ft | 329 kts | 67° |
| 2026-04-24 08:38 | -35.61260 | 147.64392 | 19427 ft | 326 kts | 67° |
| 2026-04-24 08:38 | -35.60342 | 147.66931 | 19439 ft | 324 kts | 66° |
| 2026-04-24 08:38 | -35.59414 | 147.69496 | 19447 ft | 325 kts | 66° |
| 2026-04-24 08:38 | -35.58496 | 147.72032 | 19448 ft | 327 kts | 66° |
| 2026-04-24 08:39 | -35.57565 | 147.74600 | 19446 ft | 328 kts | 66° |
| 2026-04-24 08:39 | -35.56618 | 147.77211 | 19441 ft | 329 kts | 66° |
| 2026-04-24 08:39 | -35.55685 | 147.79784 | 19444 ft | 330 kts | 66° |
| 2026-04-24 08:39 | -35.54757 | 147.82335 | 19442 ft | 330 kts | 66° |
| 2026-04-24 08:40 | -35.54125 | 147.84073 | 19446 ft | 331 kts | 66° |
| 2026-04-24 08:40 | -35.52883 | 147.87488 | 19440 ft | 331 kts | 66° |
| 2026-04-24 08:40 | -35.51924 | 147.90062 | 19441 ft | 332 kts | 64° |
| 2026-04-24 08:40 | -35.50655 | 147.92444 | 19460 ft | 332 kts | 54° |
| 2026-04-24 08:41 | -35.49280 | 147.94727 | 19448 ft | 332 kts | 55° |
| 2026-04-24 08:41 | -35.47918 | 147.97000 | 19446 ft | 331 kts | 54° |
| 2026-04-24 08:41 | -35.46999 | 147.98521 | 19448 ft | 331 kts | 54° |
| 2026-04-24 08:41 | -35.45176 | 148.01552 | 19450 ft | 331 kts | 54° |
| 2026-04-24 08:42 | -35.43812 | 148.03821 | 19448 ft | 332 kts | 54° |
| 2026-04-24 08:42 | -35.42425 | 148.06130 | 19449 ft | 332 kts | 54° |
| 2026-04-24 08:42 | -35.41044 | 148.08429 | 19449 ft | 331 kts | 54° |
| 2026-04-24 08:42 | -35.40132 | 148.09947 | 19451 ft | 331 kts | 54° |
| 2026-04-24 08:43 | -35.38768 | 148.12219 | 19450 ft | 331 kts | 54° |
| 2026-04-24 08:43 | -35.36951 | 148.15242 | 19451 ft | 329 kts | 54° |
| 2026-04-24 08:43 | -35.35592 | 148.17506 | 19451 ft | 329 kts | 54° |
| 2026-04-24 08:43 | -35.34695 | 148.18997 | 19453 ft | 329 kts | 54° |
| 2026-04-24 08:44 | -35.32874 | 148.22025 | 19453 ft | 330 kts | 54° |
| 2026-04-24 08:44 | -35.31518 | 148.24277 | 19452 ft | 330 kts | 54° |
| 2026-04-24 08:44 | -35.30143 | 148.26559 | 19454 ft | 331 kts | 54° |
| 2026-04-24 08:44 | -35.29234 | 148.28070 | 19456 ft | 331 kts | 54° |
| 2026-04-24 08:45 | -35.27404 | 148.31105 | 19459 ft | 331 kts | 54° |
| 2026-04-24 08:45 | -35.26045 | 148.33357 | 19460 ft | 331 kts | 54° |
| 2026-04-24 08:45 | -35.24675 | 148.35626 | 19458 ft | 332 kts | 54° |
| 2026-04-24 08:45 | -35.23296 | 148.37909 | 19457 ft | 332 kts | 54° |
| 2026-04-24 08:46 | -35.21910 | 148.40202 | 19452 ft | 331 kts | 54° |
| 2026-04-24 08:46 | -35.20537 | 148.42471 | 19452 ft | 331 kts | 54° |
| 2026-04-24 08:46 | -35.19182 | 148.44708 | 19451 ft | 331 kts | 54° |
| 2026-04-24 08:46 | -35.17809 | 148.46977 | 19452 ft | 331 kts | 54° |
| 2026-04-24 08:47 | -35.16434 | 148.49245 | 19457 ft | 331 kts | 54° |
| 2026-04-24 08:47 | -35.15513 | 148.50766 | 19457 ft | 331 kts | 54° |
| 2026-04-24 08:47 | -35.13674 | 148.53796 | 19456 ft | 330 kts | 54° |
| 2026-04-24 08:47 | -35.12302 | 148.56058 | 19454 ft | 330 kts | 54° |
| 2026-04-24 08:48 | -35.11395 | 148.57550 | 19451 ft | 330 kts | 54° |
| 2026-04-24 08:48 | -35.09567 | 148.60556 | 19451 ft | 331 kts | 54° |
| 2026-04-24 08:48 | -35.08195 | 148.62813 | 19452 ft | 331 kts | 54° |
| 2026-04-24 08:48 | -35.06829 | 148.65056 | 19451 ft | 331 kts | 54° |
| 2026-04-24 08:49 | -35.05912 | 148.66557 | 19451 ft | 330 kts | 54° |
| 2026-04-24 08:49 | -35.04067 | 148.69588 | 19449 ft | 331 kts | 54° |
| 2026-04-24 08:49 | -35.03145 | 148.71104 | 19452 ft | 331 kts | 54° |
| 2026-04-24 08:49 | -35.01320 | 148.74130 | 19450 ft | 331 kts | 54° |
| 2026-04-24 08:50 | -34.99960 | 148.76387 | 19452 ft | 331 kts | 54° |
| 2026-04-24 08:50 | -34.98582 | 148.78670 | 19448 ft | 330 kts | 54° |
| 2026-04-24 08:50 | -34.97670 | 148.80180 | 19449 ft | 330 kts | 54° |
| 2026-04-24 08:50 | -34.95858 | 148.83185 | 19448 ft | 330 kts | 54° |
| 2026-04-24 08:51 | -34.94499 | 148.85442 | 19449 ft | 331 kts | 54° |
| 2026-04-24 08:51 | -34.93144 | 148.87694 | 19449 ft | 331 kts | 54° |
| 2026-04-24 08:51 | -34.91768 | 148.89987 | 19449 ft | 332 kts | 54° |
| 2026-04-24 08:51 | -34.90415 | 148.92236 | 19447 ft | 332 kts | 54° |
| 2026-04-24 08:52 | -34.89042 | 148.94519 | 19449 ft | 332 kts | 54° |
| 2026-04-24 08:52 | -34.87680 | 148.96780 | 19451 ft | 332 kts | 54° |
| 2026-04-24 08:52 | -34.86314 | 148.99049 | 19451 ft | 332 kts | 54° |
| 2026-04-24 08:52 | -34.85398 | 149.00571 | 19451 ft | 332 kts | 54° |
| 2026-04-24 08:53 | -34.83588 | 149.03575 | 19461 ft | 332 kts | 54° |
| 2026-04-24 08:53 | -34.82220 | 149.05843 | 19464 ft | 332 kts | 54° |
| 2026-04-24 08:53 | -34.80862 | 149.08099 | 19464 ft | 332 kts | 54° |
| 2026-04-24 08:53 | -34.79477 | 149.10390 | 19464 ft | 333 kts | 54° |
| 2026-04-24 08:54 | -34.78559 | 149.11879 | 19471 ft | 333 kts | 53° |
| 2026-04-24 08:54 | -34.76664 | 149.14856 | 19466 ft | 333 kts | 53° |
| 2026-04-24 08:54 | -34.75263 | 149.17087 | 19467 ft | 333 kts | 54° |
| 2026-04-24 08:54 | -34.73856 | 149.19344 | 19469 ft | 334 kts | 54° |
| 2026-04-24 08:55 | -34.72471 | 149.21587 | 19463 ft | 334 kts | 54° |
| 2026-04-24 08:55 | -34.71555 | 149.23074 | 19461 ft | 334 kts | 54° |
| 2026-04-24 08:55 | -34.69692 | 149.26114 | 19462 ft | 334 kts | 54° |
| 2026-04-24 08:55 | -34.68324 | 149.28352 | 19463 ft | 334 kts | 54° |
| 2026-04-24 08:56 | -34.66928 | 149.30643 | 19464 ft | 333 kts | 54° |
| 2026-04-24 08:56 | -34.65569 | 149.32875 | 19471 ft | 333 kts | 54° |
| 2026-04-24 08:56 | -34.64186 | 149.35147 | 19474 ft | 333 kts | 55° |
| 2026-04-24 08:56 | -34.63271 | 149.36650 | 19471 ft | 333 kts | 55° |
| 2026-04-24 08:57 | -34.61898 | 149.38907 | 19476 ft | 333 kts | 55° |
| 2026-04-24 08:57 | -34.60052 | 149.41942 | 19474 ft | 333 kts | 55° |
| 2026-04-24 08:57 | -34.58692 | 149.44177 | 19478 ft | 333 kts | 55° |
| 2026-04-24 08:57 | -34.57765 | 149.45699 | 19480 ft | 333 kts | 55° |
| 2026-04-24 08:58 | -34.56395 | 149.47949 | 19485 ft | 333 kts | 55° |
| 2026-04-24 08:58 | -34.54549 | 149.50980 | 19487 ft | 333 kts | 55° |
| 2026-04-24 08:58 | -34.53640 | 149.52469 | 19488 ft | 333 kts | 55° |
| 2026-04-24 08:58 | -34.52261 | 149.54730 | 19485 ft | 333 kts | 55° |
| 2026-04-24 08:59 | -34.50885 | 149.56987 | 19484 ft | 334 kts | 55° |
| 2026-04-24 08:59 | -34.49034 | 149.60016 | 19484 ft | 334 kts | 55° |
| 2026-04-24 08:59 | -34.47666 | 149.62256 | 19484 ft | 334 kts | 55° |
| 2026-04-24 08:59 | -34.46287 | 149.64511 | 19482 ft | 334 kts | 55° |
| 2026-04-24 09:00 | -34.45350 | 149.66043 | 19485 ft | 334 kts | 54° |
| 2026-04-24 09:00 | -34.43969 | 149.68298 | 19482 ft | 334 kts | 54° |
| 2026-04-24 09:00 | -34.42127 | 149.71307 | 19480 ft | 334 kts | 54° |
| 2026-04-24 09:00 | -34.41198 | 149.72823 | 19482 ft | 334 kts | 54° |
| 2026-04-24 09:01 | -34.39816 | 149.75076 | 19484 ft | 333 kts | 55° |
| 2026-04-24 09:01 | -34.38454 | 149.77296 | 19481 ft | 333 kts | 55° |
| 2026-04-24 09:01 | -34.36606 | 149.80306 | 19488 ft | 331 kts | 55° |
| 2026-04-24 09:01 | -34.35695 | 149.81789 | 19484 ft | 331 kts | 54° |
| 2026-04-24 09:02 | -34.33858 | 149.84775 | 19487 ft | 332 kts | 54° |
| 2026-04-24 09:02 | -34.32467 | 149.87038 | 19488 ft | 333 kts | 55° |
| 2026-04-24 09:02 | -34.31088 | 149.89278 | 19491 ft | 333 kts | 55° |
| 2026-04-24 09:02 | -34.30174 | 149.90761 | 19493 ft | 334 kts | 55° |
| 2026-04-24 09:03 | -34.28776 | 149.93030 | 19499 ft | 334 kts | 55° |
| 2026-04-24 09:03 | -34.27403 | 149.95254 | 19426 ft | 335 kts | 55° |
| 2026-04-24 09:03 | -34.26002 | 149.97527 | 19127 ft | 334 kts | 55° |
| 2026-04-24 09:03 | -34.24152 | 150.00516 | 18650 ft | 334 kts | 55° |
| 2026-04-24 09:04 | -34.22740 | 150.02797 | 18268 ft | 333 kts | 55° |
| 2026-04-24 09:04 | -34.21811 | 150.04289 | 18009 ft | 331 kts | 54° |
| 2026-04-24 09:04 | -34.20444 | 150.06496 | 17639 ft | 329 kts | 55° |
| 2026-04-24 09:04 | -34.18603 | 150.09471 | 17132 ft | 324 kts | 55° |
| 2026-04-24 09:05 | -34.17828 | 150.10989 | 16865 ft | 319 kts | 66° |
| 2026-04-24 09:05 | -34.17047 | 150.14362 | 16420 ft | 314 kts | 77° |
| 2026-04-24 09:05 | -34.16445 | 150.16917 | 16052 ft | 315 kts | 71° |
| 2026-04-24 09:05 | -34.15367 | 150.19194 | 15725 ft | 316 kts | 56° |
| 2026-04-24 09:06 | -34.14143 | 150.21368 | 15364 ft | 314 kts | 63° |
| 2026-04-24 09:06 | -34.13486 | 150.23879 | 15014 ft | 310 kts | 84° |
| 2026-04-24 09:06 | -34.13380 | 150.25606 | 14806 ft | 308 kts | 87° |
| 2026-04-24 09:06 | -34.13043 | 150.29053 | 14326 ft | 309 kts | 82° |
| 2026-04-24 09:07 | -34.12822 | 150.30777 | 14094 ft | 309 kts | 82° |
| 2026-04-24 09:07 | -34.12316 | 150.34146 | 13627 ft | 309 kts | 80° |
| 2026-04-24 09:07 | -34.11577 | 150.38370 | 13035 ft | 308 kts | 78° |
| 2026-04-24 09:08 | -34.11099 | 150.40887 | 12686 ft | 307 kts | 78° |
| 2026-04-24 09:08 | -34.10446 | 150.44182 | 12218 ft | 297 kts | 77° |
| 2026-04-24 09:08 | -34.10121 | 150.45772 | 11995 ft | 292 kts | 77° |
| 2026-04-24 09:08 | -34.09626 | 150.48145 | 11665 ft | 287 kts | 77° |
| 2026-04-24 09:09 | -34.09138 | 150.50461 | 11114 ft | 284 kts | 77° |
| 2026-04-24 09:09 | -34.08499 | 150.53468 | 10505 ft | 277 kts | 77° |
| 2026-04-24 09:09 | -34.08030 | 150.55711 | 10158 ft | 270 kts | 77° |
| 2026-04-24 09:09 | -34.07731 | 150.57135 | 9952 ft | 265 kts | 77° |
| 2026-04-24 09:10 | -34.07274 | 150.59291 | 9642 ft | 259 kts | 77° |
| 2026-04-24 09:10 | -34.06839 | 150.61336 | 9355 ft | 252 kts | 77° |
| 2026-04-24 09:10 | -34.06258 | 150.64058 | 8973 ft | 245 kts | 77° |
| 2026-04-24 09:10 | -34.05979 | 150.65356 | 8792 ft | 242 kts | 76° |
| 2026-04-24 09:11 | -34.05417 | 150.67955 | 8424 ft | 238 kts | 76° |
| 2026-04-24 09:11 | -34.05134 | 150.69229 | 8242 ft | 235 kts | 75° |
| 2026-04-24 09:11 | -34.04716 | 150.71111 | 7967 ft | 232 kts | 75° |
| 2026-04-24 09:11 | -34.04176 | 150.73627 | 7627 ft | 233 kts | 76° |
| 2026-04-24 09:12 | -34.03772 | 150.75551 | 7365 ft | 239 kts | 76° |
| 2026-04-24 09:12 | -34.03494 | 150.76852 | 7184 ft | 242 kts | 76° |
| 2026-04-24 09:12 | -34.02924 | 150.79494 | 6899 ft | 243 kts | 75° |
| 2026-04-24 09:12 | -34.02466 | 150.81473 | 6808 ft | 245 kts | 75° |
| 2026-04-24 09:13 | -34.02008 | 150.83421 | 6701 ft | 241 kts | 75° |
| 2026-04-24 09:13 | -34.01553 | 150.85353 | 6601 ft | 240 kts | 75° |
| 2026-04-24 09:13 | -34.01247 | 150.86671 | 6540 ft | 244 kts | 75° |
| 2026-04-24 09:13 | -34.00787 | 150.88641 | 6436 ft | 247 kts | 75° |
| 2026-04-24 09:14 | -34.00158 | 150.91313 | 6287 ft | 250 kts | 75° |
| 2026-04-24 09:14 | -33.99689 | 150.93308 | 6178 ft | 249 kts | 74° |
| 2026-04-24 09:14 | -33.99207 | 150.95303 | 6070 ft | 249 kts | 71° |
| 2026-04-24 09:14 | -33.98296 | 150.97076 | 5999 ft | 249 kts | 44° |
| 2026-04-24 09:15 | -33.97349 | 150.97835 | 5951 ft | 251 kts | 26° |
| 2026-04-24 09:15 | -33.95029 | 150.98543 | 5671 ft | 260 kts | 13° |
| 2026-04-24 09:15 | -33.93861 | 150.98836 | 5516 ft | 260 kts | 14° |
| 2026-04-24 09:15 | -33.92109 | 150.99243 | 5261 ft | 254 kts | 12° |
| 2026-04-24 09:16 | -33.89839 | 150.99764 | 4970 ft | 240 kts | 13° |
| 2026-04-24 09:16 | -33.88265 | 151.00110 | 4760 ft | 229 kts | 12° |
| 2026-04-24 09:16 | -33.86701 | 151.00453 | 4540 ft | 219 kts | 13° |
| 2026-04-24 09:16 | -33.85228 | 151.00778 | 4330 ft | 211 kts | 14° |
| 2026-04-24 09:17 | -33.84315 | 151.01140 | 4171 ft | 202 kts | 32° |
| 2026-04-24 09:17 | -33.83341 | 151.02304 | 3967 ft | 194 kts | 54° |
| 2026-04-24 09:17 | -33.82527 | 151.03558 | 3769 ft | 190 kts | 52° |
| 2026-04-24 09:17 | -33.81458 | 151.05212 | 3485 ft | 185 kts | 53° |
| 2026-04-24 09:18 | -33.80683 | 151.06421 | 3281 ft | 182 kts | 52° |
| 2026-04-24 09:18 | -33.80168 | 151.07227 | 3140 ft | 180 kts | 53° |
| 2026-04-24 09:18 | -33.79173 | 151.08806 | 2868 ft | 177 kts | 58° |
| 2026-04-24 09:18 | -33.78881 | 151.09709 | 2713 ft | 173 kts | 83° |
| 2026-04-24 09:19 | -33.79185 | 151.11034 | 2474 ft | 163 kts | 126° |
| 2026-04-24 09:19 | -33.80233 | 151.12271 | 2223 ft | 157 kts | 133° |
| 2026-04-24 09:19 | -33.81034 | 151.13178 | 2048 ft | 157 kts | 133° |
| 2026-04-24 09:19 | -33.81855 | 151.14035 | 1858 ft | 150 kts | 139° |
| 2026-04-24 09:20 | -33.82772 | 151.14560 | 1766 ft | 150 kts | 162° |
| 2026-04-24 09:20 | -33.83802 | 151.14787 | 1776 ft | 151 kts | 164° |
| 2026-04-24 09:20 | -33.84493 | 151.14954 | 1726 ft | 152 kts | 162° |
| 2026-04-24 09:20 | -33.85819 | 151.15329 | 1565 ft | 144 kts | 162° |
| 2026-04-24 09:21 | -33.86809 | 151.15553 | 1424 ft | 144 kts | 165° |
| 2026-04-24 09:21 | -33.87763 | 151.15811 | 1243 ft | 140 kts | 162° |
| 2026-04-24 09:21 | -33.88703 | 151.16075 | 1045 ft | 138 kts | 166° |
| 2026-04-24 09:21 | -33.89333 | 151.16235 | 938 ft | 139 kts | 165° |
| 2026-04-24 09:22 | -33.90250 | 151.16470 | 692 ft | 129 kts | 165° |
| 2026-04-24 09:22 | -33.91090 | 151.16684 | 457 ft | 122 kts | 166° |
| 2026-04-24 09:22 | -33.92199 | 151.16977 | 238 ft | 122 kts | 167° |
| 2026-04-24 09:22 | -33.93025 | 151.17181 | 61 ft | 119 kts | 167° |
| 2026-04-24 09:23 | -33.93774 | 151.17377 | 13 ft | 99 kts | 168° |
| 2026-04-24 09:23 | -33.94292 | 151.17529 | 21 ft | 46 kts | 148° |
| 2026-04-24 09:23 | -33.94424 | 151.17622 | 24 ft | 25 kts | 142° |
| 2026-04-24 09:23 | -33.94516 | 151.17731 | 26 ft | 12 kts | 99° |
| 2026-04-24 09:24 | -33.94444 | 151.17773 | 24 ft | 18 kts | 343° |
| 2026-04-24 09:24 | -33.94309 | 151.17728 | 21 ft | 19 kts | 346° |
| 2026-04-24 09:24 | -33.94150 | 151.17680 | 16 ft | 27 kts | 346° |
| 2026-04-24 09:24 | -33.93973 | 151.17629 | 10 ft | 19 kts | 347° |
| 2026-04-24 09:25 | -33.93892 | 151.17627 | 10 ft | 12 kts | 30° |
| 2026-04-24 09:25 | -33.93855 | 151.17708 | 11 ft | 14 kts | 72° |
| 2026-04-24 09:25 | -33.93820 | 151.17862 | 12 ft | 19 kts | 74° |
| 2026-04-24 09:25 | -33.93777 | 151.18047 | 19 ft | 12 kts | 75° |
| 2026-04-24 09:26 | -33.93749 | 151.18166 | 22 ft | 14 kts | 75° |
| 2026-04-24 09:26 | -33.93735 | 151.18227 | 24 ft | 11 kts | 73° |
| 2026-04-24 09:26 | -33.93706 | 151.18343 | 27 ft | 17 kts | 74° |
| 2026-04-24 09:26 | -33.93663 | 151.18538 | 30 ft | 21 kts | 73° |
| 2026-04-24 09:27 | -33.93618 | 151.18715 | 30 ft | 23 kts | 75° |
| 2026-04-24 09:27 | -33.93598 | 151.18820 | 30 ft | 18 kts | 85° |
| 2026-04-24 09:27 | -33.93595 | 151.18945 | 29 ft | 11 kts | 78° |
| 2026-04-24 09:27 | -33.93569 | 151.19063 | 28 ft | 11 kts | 67° |
| 2026-04-24 09:28 | -33.93491 | 151.19078 | 28 ft | 0 kts | 341° |